sensor_id;sensor_type;location;lat;lon;timestamp;P1;durP1;ratioP1;P2;durP2;ratioP2
11893;SDS011;6006;49.696;8.662;2024-03-02T00:01:04;7.07;;;4.47;;
11893;SDS011;6006;49.696;8.662;2024-03-02T00:03:33;6.77;;;4.37;;
11893;SDS011;6006;49.696;8.662;2024-03-02T00:05:59;8.63;;;4.33;;
11893;SDS011;6006;49.696;8.662;2024-03-02T00:08:26;6.33;;;4.87;;
11893;SDS011;6006;49.696;8.662;2024-03-02T00:10:57;6.10;;;4.43;;
11893;SDS011;6006;49.696;8.662;2024-03-02T00:13:25;5.93;;;4.97;;
11893;SDS011;6006;49.696;8.662;2024-03-02T00:15:52;7.63;;;4.70;;
11893;SDS011;6006;49.696;8.662;2024-03-02T00:18:20;6.83;;;4.27;;
11893;SDS011;6006;49.696;8.662;2024-03-02T00:20:53;6.37;;;3.97;;
11893;SDS011;6006;49.696;8.662;2024-03-02T00:23:22;6.50;;;4.63;;
11893;SDS011;6006;49.696;8.662;2024-03-02T00:25:49;4.23;;;3.67;;
11893;SDS011;6006;49.696;8.662;2024-03-02T00:28:19;5.83;;;4.70;;
11893;SDS011;6006;49.696;8.662;2024-03-02T00:30:59;7.43;;;4.93;;
11893;SDS011;6006;49.696;8.662;2024-03-02T00:33:33;4.07;;;3.30;;
11893;SDS011;6006;49.696;8.662;2024-03-02T00:36:02;6.53;;;3.57;;
11893;SDS011;6006;49.696;8.662;2024-03-02T00:38:30;7.20;;;4.17;;
11893;SDS011;6006;49.696;8.662;2024-03-02T00:40:58;4.23;;;3.83;;
11893;SDS011;6006;49.696;8.662;2024-03-02T00:46:23;7.43;;;3.87;;
11893;SDS011;6006;49.696;8.662;2024-03-02T00:48:53;5.70;;;3.67;;
11893;SDS011;6006;49.696;8.662;2024-03-02T00:51:23;5.07;;;3.27;;
11893;SDS011;6006;49.696;8.662;2024-03-02T00:53:51;3.87;;;3.17;;
11893;SDS011;6006;49.696;8.662;2024-03-02T00:56:21;4.70;;;2.70;;
11893;SDS011;6006;49.696;8.662;2024-03-02T00:58:48;3.93;;;2.83;;
11893;SDS011;6006;49.696;8.662;2024-03-02T01:01:15;2.70;;;2.03;;
11893;SDS011;6006;49.696;8.662;2024-03-02T01:03:42;4.17;;;2.73;;
11893;SDS011;6006;49.696;8.662;2024-03-02T01:06:09;5.77;;;2.67;;
11893;SDS011;6006;49.696;8.662;2024-03-02T01:08:37;4.33;;;2.83;;
11893;SDS011;6006;49.696;8.662;2024-03-02T01:11:04;2.93;;;2.50;;
11893;SDS011;6006;49.696;8.662;2024-03-02T01:13:31;4.03;;;2.70;;
11893;SDS011;6006;49.696;8.662;2024-03-02T01:15:59;3.03;;;2.40;;
11893;SDS011;6006;49.696;8.662;2024-03-02T01:18:26;3.07;;;2.23;;
11893;SDS011;6006;49.696;8.662;2024-03-02T01:20:53;2.60;;;1.87;;
11893;SDS011;6006;49.696;8.662;2024-03-02T01:23:21;3.33;;;2.23;;
11893;SDS011;6006;49.696;8.662;2024-03-02T01:25:50;2.37;;;2.17;;
11893;SDS011;6006;49.696;8.662;2024-03-02T01:28:17;3.87;;;2.60;;
11893;SDS011;6006;49.696;8.662;2024-03-02T01:30:46;3.20;;;2.27;;
11893;SDS011;6006;49.696;8.662;2024-03-02T01:33:13;2.73;;;2.53;;
11893;SDS011;6006;49.696;8.662;2024-03-02T01:35:39;4.83;;;2.27;;
11893;SDS011;6006;49.696;8.662;2024-03-02T01:38:06;3.03;;;1.93;;
11893;SDS011;6006;49.696;8.662;2024-03-02T01:40:34;2.30;;;2.07;;
11893;SDS011;6006;49.696;8.662;2024-03-02T01:43:02;3.60;;;1.90;;
11893;SDS011;6006;49.696;8.662;2024-03-02T01:45:30;5.63;;;2.27;;
11893;SDS011;6006;49.696;8.662;2024-03-02T01:47:57;2.90;;;2.57;;
11893;SDS011;6006;49.696;8.662;2024-03-02T01:50:25;4.07;;;1.70;;
11893;SDS011;6006;49.696;8.662;2024-03-02T01:52:53;3.93;;;2.67;;
11893;SDS011;6006;49.696;8.662;2024-03-02T01:55:21;3.40;;;2.90;;
11893;SDS011;6006;49.696;8.662;2024-03-02T01:57:48;4.87;;;2.67;;
11893;SDS011;6006;49.696;8.662;2024-03-02T02:00:18;3.90;;;2.80;;
11893;SDS011;6006;49.696;8.662;2024-03-02T02:02:46;4.00;;;2.77;;
11893;SDS011;6006;49.696;8.662;2024-03-02T02:05:14;4.30;;;2.83;;
11893;SDS011;6006;49.696;8.662;2024-03-02T02:07:41;5.17;;;2.87;;
11893;SDS011;6006;49.696;8.662;2024-03-02T02:10:08;4.03;;;2.93;;
11893;SDS011;6006;49.696;8.662;2024-03-02T02:12:36;3.80;;;2.70;;
11893;SDS011;6006;49.696;8.662;2024-03-02T02:15:03;2.87;;;2.50;;
11893;SDS011;6006;49.696;8.662;2024-03-02T02:17:48;2.97;;;2.47;;
11893;SDS011;6006;49.696;8.662;2024-03-02T02:20:15;4.03;;;3.13;;
11893;SDS011;6006;49.696;8.662;2024-03-02T02:22:53;4.80;;;2.50;;
11893;SDS011;6006;49.696;8.662;2024-03-02T02:25:21;3.70;;;2.87;;
11893;SDS011;6006;49.696;8.662;2024-03-02T02:27:48;2.53;;;1.80;;
11893;SDS011;6006;49.696;8.662;2024-03-02T02:30:18;3.23;;;2.27;;
11893;SDS011;6006;49.696;8.662;2024-03-02T02:32:46;2.03;;;1.53;;
11893;SDS011;6006;49.696;8.662;2024-03-02T02:35:13;4.87;;;2.20;;
11893;SDS011;6006;49.696;8.662;2024-03-02T02:37:40;3.60;;;2.17;;
11893;SDS011;6006;49.696;8.662;2024-03-02T02:40:09;3.20;;;1.73;;
11893;SDS011;6006;49.696;8.662;2024-03-02T02:42:37;1.93;;;1.80;;
11893;SDS011;6006;49.696;8.662;2024-03-02T02:45:05;2.20;;;1.97;;
11893;SDS011;6006;49.696;8.662;2024-03-02T02:47:32;2.57;;;2.07;;
11893;SDS011;6006;49.696;8.662;2024-03-02T02:50:00;3.37;;;2.13;;
11893;SDS011;6006;49.696;8.662;2024-03-02T02:52:30;2.40;;;1.63;;
11893;SDS011;6006;49.696;8.662;2024-03-02T02:55:00;2.27;;;1.53;;
11893;SDS011;6006;49.696;8.662;2024-03-02T02:57:30;2.93;;;2.27;;
11893;SDS011;6006;49.696;8.662;2024-03-02T03:00:00;4.57;;;2.30;;
11893;SDS011;6006;49.696;8.662;2024-03-02T03:02:30;4.00;;;2.00;;
11893;SDS011;6006;49.696;8.662;2024-03-02T03:04:57;2.97;;;2.13;;
11893;SDS011;6006;49.696;8.662;2024-03-02T03:07:24;3.63;;;2.60;;
11893;SDS011;6006;49.696;8.662;2024-03-02T03:09:50;5.17;;;2.47;;
11893;SDS011;6006;49.696;8.662;2024-03-02T03:12:17;3.80;;;2.10;;
11893;SDS011;6006;49.696;8.662;2024-03-02T03:14:46;4.23;;;2.40;;
11893;SDS011;6006;49.696;8.662;2024-03-02T03:17:12;2.33;;;2.10;;
11893;SDS011;6006;49.696;8.662;2024-03-02T03:19:40;2.00;;;1.70;;
11893;SDS011;6006;49.696;8.662;2024-03-02T03:22:06;2.10;;;1.90;;
11893;SDS011;6006;49.696;8.662;2024-03-02T03:24:33;4.57;;;2.07;;
11893;SDS011;6006;49.696;8.662;2024-03-02T03:27:00;2.60;;;1.67;;
11893;SDS011;6006;49.696;8.662;2024-03-02T03:29:27;2.83;;;2.00;;
11893;SDS011;6006;49.696;8.662;2024-03-02T03:31:55;1.90;;;1.10;;
11893;SDS011;6006;49.696;8.662;2024-03-02T03:34:22;2.47;;;1.27;;
11893;SDS011;6006;49.696;8.662;2024-03-02T03:36:49;1.53;;;1.43;;
11893;SDS011;6006;49.696;8.662;2024-03-02T03:39:16;1.87;;;1.57;;
11893;SDS011;6006;49.696;8.662;2024-03-02T03:41:43;1.87;;;1.60;;
11893;SDS011;6006;49.696;8.662;2024-03-02T03:44:10;1.50;;;1.33;;
11893;SDS011;6006;49.696;8.662;2024-03-02T03:46:37;2.93;;;1.40;;
11893;SDS011;6006;49.696;8.662;2024-03-02T03:49:05;1.47;;;1.27;;
11893;SDS011;6006;49.696;8.662;2024-03-02T03:51:33;3.30;;;1.40;;
11893;SDS011;6006;49.696;8.662;2024-03-02T03:54:00;0.97;;;0.80;;
11893;SDS011;6006;49.696;8.662;2024-03-02T03:56:27;1.57;;;1.40;;
11893;SDS011;6006;49.696;8.662;2024-03-02T03:58:54;1.53;;;1.17;;
11893;SDS011;6006;49.696;8.662;2024-03-02T04:01:21;1.47;;;1.33;;
11893;SDS011;6006;49.696;8.662;2024-03-02T04:03:48;1.57;;;1.40;;
11893;SDS011;6006;49.696;8.662;2024-03-02T04:06:16;2.97;;;1.30;;
11893;SDS011;6006;49.696;8.662;2024-03-02T04:08:43;1.57;;;1.10;;
11893;SDS011;6006;49.696;8.662;2024-03-02T04:11:10;3.33;;;1.40;;
11893;SDS011;6006;49.696;8.662;2024-03-02T04:13:37;2.63;;;1.20;;
11893;SDS011;6006;49.696;8.662;2024-03-02T04:16:04;0.90;;;0.70;;
11893;SDS011;6006;49.696;8.662;2024-03-02T04:18:31;1.53;;;1.43;;
11893;SDS011;6006;49.696;8.662;2024-03-02T04:20:58;1.33;;;1.17;;
11893;SDS011;6006;49.696;8.662;2024-03-02T04:23:26;1.43;;;1.30;;
11893;SDS011;6006;49.696;8.662;2024-03-02T04:25:53;1.30;;;1.10;;
11893;SDS011;6006;49.696;8.662;2024-03-02T04:28:20;1.80;;;1.37;;
11893;SDS011;6006;49.696;8.662;2024-03-02T04:30:47;2.47;;;1.67;;
11893;SDS011;6006;49.696;8.662;2024-03-02T04:33:14;2.80;;;1.70;;
11893;SDS011;6006;49.696;8.662;2024-03-02T04:35:41;2.50;;;1.50;;
11893;SDS011;6006;49.696;8.662;2024-03-02T04:38:08;1.40;;;1.30;;
11893;SDS011;6006;49.696;8.662;2024-03-02T04:40:36;2.67;;;1.60;;
11893;SDS011;6006;49.696;8.662;2024-03-02T04:43:03;2.60;;;1.37;;
11893;SDS011;6006;49.696;8.662;2024-03-02T04:45:30;2.40;;;0.97;;
11893;SDS011;6006;49.696;8.662;2024-03-02T04:47:57;1.53;;;1.43;;
11893;SDS011;6006;49.696;8.662;2024-03-02T04:50:24;3.13;;;1.70;;
11893;SDS011;6006;49.696;8.662;2024-03-02T04:52:50;2.73;;;1.10;;
11893;SDS011;6006;49.696;8.662;2024-03-02T04:55:17;1.73;;;1.23;;
11893;SDS011;6006;49.696;8.662;2024-03-02T04:58:11;1.63;;;1.20;;
11893;SDS011;6006;49.696;8.662;2024-03-02T05:00:38;1.20;;;1.10;;
11893;SDS011;6006;49.696;8.662;2024-03-02T05:03:05;2.47;;;1.27;;
11893;SDS011;6006;49.696;8.662;2024-03-02T05:05:32;3.97;;;1.57;;
11893;SDS011;6006;49.696;8.662;2024-03-02T05:08:00;1.80;;;1.03;;
11893;SDS011;6006;49.696;8.662;2024-03-02T05:10:28;1.63;;;1.13;;
11893;SDS011;6006;49.696;8.662;2024-03-02T05:12:55;1.03;;;0.93;;
11893;SDS011;6006;49.696;8.662;2024-03-02T05:15:23;2.53;;;1.20;;
11893;SDS011;6006;49.696;8.662;2024-03-02T05:17:50;1.07;;;0.93;;
11893;SDS011;6006;49.696;8.662;2024-03-02T05:20:17;1.67;;;1.10;;
11893;SDS011;6006;49.696;8.662;2024-03-02T05:22:45;2.00;;;1.00;;
11893;SDS011;6006;49.696;8.662;2024-03-02T05:25:12;1.50;;;1.23;;
11893;SDS011;6006;49.696;8.662;2024-03-02T05:27:39;0.77;;;0.77;;
11893;SDS011;6006;49.696;8.662;2024-03-02T05:30:07;0.80;;;0.80;;
11893;SDS011;6006;49.696;8.662;2024-03-02T05:32:36;1.07;;;1.00;;
11893;SDS011;6006;49.696;8.662;2024-03-02T05:35:04;0.90;;;0.90;;
11893;SDS011;6006;49.696;8.662;2024-03-02T05:37:31;0.83;;;0.63;;
11893;SDS011;6006;49.696;8.662;2024-03-02T05:39:59;1.43;;;1.10;;
11893;SDS011;6006;49.696;8.662;2024-03-02T05:42:26;0.70;;;0.70;;
11893;SDS011;6006;49.696;8.662;2024-03-02T05:44:53;1.43;;;1.20;;
11893;SDS011;6006;49.696;8.662;2024-03-02T05:47:20;1.10;;;1.00;;
11893;SDS011;6006;49.696;8.662;2024-03-02T05:49:48;1.90;;;0.97;;
11893;SDS011;6006;49.696;8.662;2024-03-02T05:52:15;0.80;;;0.80;;
11893;SDS011;6006;49.696;8.662;2024-03-02T05:54:42;2.17;;;1.00;;
11893;SDS011;6006;49.696;8.662;2024-03-02T05:57:09;1.87;;;1.23;;
11893;SDS011;6006;49.696;8.662;2024-03-02T05:59:58;1.60;;;1.50;;
11893;SDS011;6006;49.696;8.662;2024-03-02T06:02:25;2.23;;;1.43;;
11893;SDS011;6006;49.696;8.662;2024-03-02T06:04:55;1.43;;;1.33;;
11893;SDS011;6006;49.696;8.662;2024-03-02T06:07:22;1.93;;;1.27;;
11893;SDS011;6006;49.696;8.662;2024-03-02T06:09:49;1.03;;;0.83;;
11893;SDS011;6006;49.696;8.662;2024-03-02T06:12:17;0.80;;;0.80;;
11893;SDS011;6006;49.696;8.662;2024-03-02T06:14:44;1.13;;;1.13;;
11893;SDS011;6006;49.696;8.662;2024-03-02T06:17:11;0.97;;;0.80;;
11893;SDS011;6006;49.696;8.662;2024-03-02T06:19:38;0.70;;;0.70;;
11893;SDS011;6006;49.696;8.662;2024-03-02T06:22:07;1.67;;;1.20;;
11893;SDS011;6006;49.696;8.662;2024-03-02T06:24:35;1.43;;;1.33;;
11893;SDS011;6006;49.696;8.662;2024-03-02T06:27:02;1.13;;;1.03;;
11893;SDS011;6006;49.696;8.662;2024-03-02T06:29:32;1.27;;;0.80;;
11893;SDS011;6006;49.696;8.662;2024-03-02T06:31:59;1.23;;;1.03;;
11893;SDS011;6006;49.696;8.662;2024-03-02T06:34:26;3.93;;;1.00;;
11893;SDS011;6006;49.696;8.662;2024-03-02T06:36:53;0.83;;;0.83;;
11893;SDS011;6006;49.696;8.662;2024-03-02T06:39:21;1.40;;;1.10;;
11893;SDS011;6006;49.696;8.662;2024-03-02T06:41:48;1.07;;;0.93;;
11893;SDS011;6006;49.696;8.662;2024-03-02T06:44:15;1.93;;;0.97;;
11893;SDS011;6006;49.696;8.662;2024-03-02T06:46:42;1.07;;;0.97;;
11893;SDS011;6006;49.696;8.662;2024-03-02T06:49:09;1.30;;;0.80;;
11893;SDS011;6006;49.696;8.662;2024-03-02T06:51:36;1.30;;;0.70;;
11893;SDS011;6006;49.696;8.662;2024-03-02T06:54:03;0.93;;;0.80;;
11893;SDS011;6006;49.696;8.662;2024-03-02T06:56:31;1.23;;;0.90;;
11893;SDS011;6006;49.696;8.662;2024-03-02T06:58:59;2.43;;;1.00;;
11893;SDS011;6006;49.696;8.662;2024-03-02T07:01:26;0.93;;;0.93;;
11893;SDS011;6006;49.696;8.662;2024-03-02T07:03:53;1.93;;;1.60;;
11893;SDS011;6006;49.696;8.662;2024-03-02T07:06:20;0.70;;;0.70;;
11893;SDS011;6006;49.696;8.662;2024-03-02T07:08:47;1.10;;;1.00;;
11893;SDS011;6006;49.696;8.662;2024-03-02T07:11:13;1.17;;;1.07;;
11893;SDS011;6006;49.696;8.662;2024-03-02T07:13:42;1.10;;;1.10;;
11893;SDS011;6006;49.696;8.662;2024-03-02T07:16:08;0.93;;;0.73;;
11893;SDS011;6006;49.696;8.662;2024-03-02T07:18:53;2.60;;;2.00;;
11893;SDS011;6006;49.696;8.662;2024-03-02T07:21:21;1.30;;;1.03;;
11893;SDS011;6006;49.696;8.662;2024-03-02T07:23:49;2.10;;;1.40;;
11893;SDS011;6006;49.696;8.662;2024-03-02T07:26:16;1.13;;;1.10;;
11893;SDS011;6006;49.696;8.662;2024-03-02T07:28:45;2.53;;;2.10;;
11893;SDS011;6006;49.696;8.662;2024-03-02T07:31:13;1.77;;;1.10;;
11893;SDS011;6006;49.696;8.662;2024-03-02T07:33:40;2.27;;;1.87;;
11893;SDS011;6006;49.696;8.662;2024-03-02T07:36:07;1.47;;;1.37;;
11893;SDS011;6006;49.696;8.662;2024-03-02T07:38:34;1.60;;;1.50;;
11893;SDS011;6006;49.696;8.662;2024-03-02T07:41:01;6.97;;;4.97;;
11893;SDS011;6006;49.696;8.662;2024-03-02T07:43:29;8.70;;;6.03;;
11893;SDS011;6006;49.696;8.662;2024-03-02T07:45:59;5.43;;;4.10;;
11893;SDS011;6006;49.696;8.662;2024-03-02T07:48:28;6.83;;;4.53;;
11893;SDS011;6006;49.696;8.662;2024-03-02T07:50:56;4.73;;;4.23;;
11893;SDS011;6006;49.696;8.662;2024-03-02T07:53:23;4.50;;;3.40;;
11893;SDS011;6006;49.696;8.662;2024-03-02T07:55:50;7.80;;;3.33;;
11893;SDS011;6006;49.696;8.662;2024-03-02T07:58:17;6.27;;;3.60;;
11893;SDS011;6006;49.696;8.662;2024-03-02T08:00:45;6.33;;;3.90;;
11893;SDS011;6006;49.696;8.662;2024-03-02T08:03:13;5.57;;;4.83;;
11893;SDS011;6006;49.696;8.662;2024-03-02T08:05:40;7.17;;;4.40;;
11893;SDS011;6006;49.696;8.662;2024-03-02T08:08:07;8.90;;;6.57;;
11893;SDS011;6006;49.696;8.662;2024-03-02T08:13:05;11.77;;;7.60;;
11893;SDS011;6006;49.696;8.662;2024-03-02T08:15:32;6.63;;;4.73;;
11893;SDS011;6006;49.696;8.662;2024-03-02T08:17:59;6.00;;;4.37;;
11893;SDS011;6006;49.696;8.662;2024-03-02T08:20:27;4.50;;;4.07;;
11893;SDS011;6006;49.696;8.662;2024-03-02T08:22:54;5.47;;;3.67;;
11893;SDS011;6006;49.696;8.662;2024-03-02T08:25:21;5.03;;;3.20;;
11893;SDS011;6006;49.696;8.662;2024-03-02T08:27:48;4.00;;;3.53;;
11893;SDS011;6006;49.696;8.662;2024-03-02T08:30:15;6.30;;;4.50;;
11893;SDS011;6006;49.696;8.662;2024-03-02T08:32:43;6.13;;;4.53;;
11893;SDS011;6006;49.696;8.662;2024-03-02T08:35:10;7.03;;;4.17;;
11893;SDS011;6006;49.696;8.662;2024-03-02T08:37:38;5.27;;;3.97;;
11893;SDS011;6006;49.696;8.662;2024-03-02T08:40:06;7.37;;;4.67;;
11893;SDS011;6006;49.696;8.662;2024-03-02T08:42:34;8.00;;;4.30;;
11893;SDS011;6006;49.696;8.662;2024-03-02T08:45:01;6.53;;;3.80;;
11893;SDS011;6006;49.696;8.662;2024-03-02T08:47:28;6.90;;;4.93;;
11893;SDS011;6006;49.696;8.662;2024-03-02T08:49:55;7.00;;;3.93;;
11893;SDS011;6006;49.696;8.662;2024-03-02T08:52:22;5.33;;;3.60;;
11893;SDS011;6006;49.696;8.662;2024-03-02T08:54:50;5.00;;;4.50;;
11893;SDS011;6006;49.696;8.662;2024-03-02T08:57:17;5.63;;;4.10;;
11893;SDS011;6006;49.696;8.662;2024-03-02T08:59:44;4.20;;;3.67;;
11893;SDS011;6006;49.696;8.662;2024-03-02T09:02:11;5.23;;;3.70;;
11893;SDS011;6006;49.696;8.662;2024-03-02T09:04:38;4.73;;;4.03;;
11893;SDS011;6006;49.696;8.662;2024-03-02T09:07:05;5.53;;;3.30;;
11893;SDS011;6006;49.696;8.662;2024-03-02T09:09:32;4.30;;;3.90;;
11893;SDS011;6006;49.696;8.662;2024-03-02T09:12:01;4.63;;;3.73;;
11893;SDS011;6006;49.696;8.662;2024-03-02T09:14:28;4.07;;;3.13;;
11893;SDS011;6006;49.696;8.662;2024-03-02T09:16:55;4.70;;;3.80;;
11893;SDS011;6006;49.696;8.662;2024-03-02T09:19:22;6.23;;;4.17;;
11893;SDS011;6006;49.696;8.662;2024-03-02T09:21:48;4.63;;;3.60;;
11893;SDS011;6006;49.696;8.662;2024-03-02T09:24:16;3.87;;;3.17;;
11893;SDS011;6006;49.696;8.662;2024-03-02T09:26:42;5.37;;;3.47;;
11893;SDS011;6006;49.696;8.662;2024-03-02T09:29:11;3.30;;;3.00;;
11893;SDS011;6006;49.696;8.662;2024-03-02T09:31:39;4.30;;;3.17;;
11893;SDS011;6006;49.696;8.662;2024-03-02T09:34:06;3.83;;;2.90;;
11893;SDS011;6006;49.696;8.662;2024-03-02T09:36:33;3.37;;;2.53;;
11893;SDS011;6006;49.696;8.662;2024-03-02T09:39:00;2.37;;;2.17;;
11893;SDS011;6006;49.696;8.662;2024-03-02T09:41:28;3.37;;;2.63;;
11893;SDS011;6006;49.696;8.662;2024-03-02T09:43:55;2.67;;;2.40;;
11893;SDS011;6006;49.696;8.662;2024-03-02T09:46:25;2.30;;;2.10;;
11893;SDS011;6006;49.696;8.662;2024-03-02T09:48:52;2.83;;;2.27;;
11893;SDS011;6006;49.696;8.662;2024-03-02T09:51:19;2.97;;;2.50;;
11893;SDS011;6006;49.696;8.662;2024-03-02T09:53:46;3.67;;;2.73;;
11893;SDS011;6006;49.696;8.662;2024-03-02T09:56:14;2.97;;;2.63;;
11893;SDS011;6006;49.696;8.662;2024-03-02T09:58:43;2.67;;;2.40;;
11893;SDS011;6006;49.696;8.662;2024-03-02T10:01:10;3.87;;;2.50;;
11893;SDS011;6006;49.696;8.662;2024-03-02T10:03:39;3.60;;;2.60;;
11893;SDS011;6006;49.696;8.662;2024-03-02T10:06:18;2.60;;;2.40;;
11893;SDS011;6006;49.696;8.662;2024-03-02T10:08:45;3.20;;;2.80;;
11893;SDS011;6006;49.696;8.662;2024-03-02T10:11:19;3.45;;;2.50;;
11893;SDS011;6006;49.696;8.662;2024-03-02T10:13:57;3.15;;;2.35;;
11893;SDS011;6006;49.696;8.662;2024-03-02T10:16:33;3.45;;;2.60;;
11893;SDS011;6006;49.696;8.662;2024-03-02T10:19:12;2.38;;;2.10;;
11893;SDS011;6006;49.696;8.662;2024-03-02T10:21:42;2.85;;;2.33;;
11893;SDS011;6006;49.696;8.662;2024-03-02T10:24:09;2.85;;;2.00;;
11893;SDS011;6006;49.696;8.662;2024-03-02T10:26:36;2.42;;;1.90;;
11893;SDS011;6006;49.696;8.662;2024-03-02T10:29:03;3.25;;;2.05;;
11893;SDS011;6006;49.696;8.662;2024-03-02T10:31:30;1.50;;;1.40;;
11893;SDS011;6006;49.696;8.662;2024-03-02T10:33:57;3.88;;;1.70;;
11893;SDS011;6006;49.696;8.662;2024-03-02T10:36:26;1.10;;;1.10;;
11893;SDS011;6006;49.696;8.662;2024-03-02T10:38:55;0.93;;;0.93;;
11893;SDS011;6006;49.696;8.662;2024-03-02T10:41:24;1.33;;;1.20;;
11893;SDS011;6006;49.696;8.662;2024-03-02T10:43:53;1.27;;;1.23;;
11893;SDS011;6006;49.696;8.662;2024-03-02T10:46:24;1.83;;;1.20;;
11893;SDS011;6006;49.696;8.662;2024-03-02T10:48:54;1.33;;;0.95;;
11893;SDS011;6006;49.696;8.662;2024-03-02T10:51:23;0.80;;;0.80;;
11893;SDS011;6006;49.696;8.662;2024-03-02T10:53:52;1.35;;;1.05;;
11893;SDS011;6006;49.696;8.662;2024-03-02T10:56:21;2.22;;;1.30;;
11893;SDS011;6006;49.696;8.662;2024-03-02T10:58:54;1.05;;;0.90;;
11893;SDS011;6006;49.696;8.662;2024-03-02T11:01:28;4.68;;;1.20;;
11893;SDS011;6006;49.696;8.662;2024-03-02T11:03:57;1.95;;;1.40;;
11893;SDS011;6006;49.696;8.662;2024-03-02T11:06:26;1.73;;;1.30;;
11893;SDS011;6006;49.696;8.662;2024-03-02T11:08:58;1.38;;;1.20;;
11893;SDS011;6006;49.696;8.662;2024-03-02T11:11:32;1.30;;;0.93;;
11893;SDS011;6006;49.696;8.662;2024-03-02T11:14:04;1.00;;;0.95;;
11893;SDS011;6006;49.696;8.662;2024-03-02T11:16:34;2.92;;;1.65;;
11893;SDS011;6006;49.696;8.662;2024-03-02T11:19:04;2.70;;;1.77;;
11893;SDS011;6006;49.696;8.662;2024-03-02T11:21:32;1.85;;;1.70;;
11893;SDS011;6006;49.696;8.662;2024-03-02T11:24:01;2.53;;;1.85;;
11893;SDS011;6006;49.696;8.662;2024-03-02T11:26:58;1.55;;;1.40;;
11893;SDS011;6006;49.696;8.662;2024-03-02T11:32:13;1.23;;;1.13;;
11893;SDS011;6006;49.696;8.662;2024-03-02T11:34:46;3.20;;;0.85;;
11893;SDS011;6006;49.696;8.662;2024-03-02T11:37:14;3.20;;;1.02;;
11893;SDS011;6006;49.696;8.662;2024-03-02T11:39:44;2.05;;;1.40;;
11893;SDS011;6006;49.696;8.662;2024-03-02T11:42:12;1.25;;;1.15;;
11893;SDS011;6006;49.696;8.662;2024-03-02T11:44:41;1.75;;;1.65;;
11893;SDS011;6006;49.696;8.662;2024-03-02T11:47:10;1.45;;;1.35;;
11893;SDS011;6006;49.696;8.662;2024-03-02T11:49:43;2.45;;;1.70;;
11893;SDS011;6006;49.696;8.662;2024-03-02T11:52:11;1.02;;;0.98;;
11893;SDS011;6006;49.696;8.662;2024-03-02T11:54:40;1.02;;;0.98;;
11893;SDS011;6006;49.696;8.662;2024-03-02T11:57:13;1.95;;;1.40;;
11893;SDS011;6006;49.696;8.662;2024-03-02T11:59:40;1.20;;;1.02;;
11893;SDS011;6006;49.696;8.662;2024-03-02T12:02:13;1.30;;;1.20;;
11893;SDS011;6006;49.696;8.662;2024-03-02T12:04:42;1.45;;;1.20;;
11893;SDS011;6006;49.696;8.662;2024-03-02T12:07:10;1.48;;;1.17;;
11893;SDS011;6006;49.696;8.662;2024-03-02T12:09:37;2.30;;;1.85;;
11893;SDS011;6006;49.696;8.662;2024-03-02T12:12:05;2.55;;;1.23;;
11893;SDS011;6006;49.696;8.662;2024-03-02T12:14:34;1.10;;;0.95;;
11893;SDS011;6006;49.696;8.662;2024-03-02T12:17:02;1.90;;;0.98;;
11893;SDS011;6006;49.696;8.662;2024-03-02T12:19:30;1.05;;;0.90;;
11893;SDS011;6006;49.696;8.662;2024-03-02T12:21:57;1.48;;;1.10;;
11893;SDS011;6006;49.696;8.662;2024-03-02T12:24:26;1.42;;;0.90;;
11893;SDS011;6006;49.696;8.662;2024-03-02T12:26:53;2.90;;;1.75;;
11893;SDS011;6006;49.696;8.662;2024-03-02T12:29:20;1.52;;;1.08;;
11893;SDS011;6006;49.696;8.662;2024-03-02T12:31:49;0.98;;;0.88;;
11893;SDS011;6006;49.696;8.662;2024-03-02T12:34:18;0.85;;;0.85;;
11893;SDS011;6006;49.696;8.662;2024-03-02T12:36:45;1.30;;;1.20;;
11893;SDS011;6006;49.696;8.662;2024-03-02T12:39:14;1.20;;;1.10;;
11893;SDS011;6006;49.696;8.662;2024-03-02T12:41:42;1.40;;;1.30;;
11893;SDS011;6006;49.696;8.662;2024-03-02T12:44:09;0.90;;;0.90;;
11893;SDS011;6006;49.696;8.662;2024-03-02T12:46:36;1.05;;;1.02;;
11893;SDS011;6006;49.696;8.662;2024-03-02T12:49:08;1.17;;;0.88;;
11893;SDS011;6006;49.696;8.662;2024-03-02T12:51:37;1.08;;;1.00;;
11893;SDS011;6006;49.696;8.662;2024-03-02T12:54:05;1.45;;;1.05;;
11893;SDS011;6006;49.696;8.662;2024-03-02T12:56:32;2.00;;;1.80;;
11893;SDS011;6006;49.696;8.662;2024-03-02T12:59:00;3.60;;;2.28;;
11893;SDS011;6006;49.696;8.662;2024-03-02T13:01:27;6.30;;;3.67;;
11893;SDS011;6006;49.696;8.662;2024-03-02T13:03:53;0.80;;;0.80;;
11893;SDS011;6006;49.696;8.662;2024-03-02T13:06:23;0.73;;;0.73;;
11893;SDS011;6006;49.696;8.662;2024-03-02T13:08:52;1.30;;;1.20;;
11893;SDS011;6006;49.696;8.662;2024-03-02T13:11:20;1.25;;;1.00;;
11893;SDS011;6006;49.696;8.662;2024-03-02T13:13:48;0.95;;;0.82;;
11893;SDS011;6006;49.696;8.662;2024-03-02T13:16:15;0.57;;;0.57;;
11893;SDS011;6006;49.696;8.662;2024-03-02T13:18:44;0.73;;;0.68;;
11893;SDS011;6006;49.696;8.662;2024-03-02T13:21:11;0.60;;;0.60;;
11893;SDS011;6006;49.696;8.662;2024-03-02T13:23:39;0.32;;;0.32;;
11893;SDS011;6006;49.696;8.662;2024-03-02T13:26:06;0.38;;;0.38;;
11893;SDS011;6006;49.696;8.662;2024-03-02T13:28:35;0.50;;;0.50;;
11893;SDS011;6006;49.696;8.662;2024-03-02T13:31:03;0.65;;;0.40;;
11893;SDS011;6006;49.696;8.662;2024-03-02T13:33:31;0.77;;;0.50;;
11893;SDS011;6006;49.696;8.662;2024-03-02T13:35:58;1.15;;;0.70;;
11893;SDS011;6006;49.696;8.662;2024-03-02T13:38:25;0.43;;;0.43;;
11893;SDS011;6006;49.696;8.662;2024-03-02T13:40:53;0.60;;;0.60;;
11893;SDS011;6006;49.696;8.662;2024-03-02T13:43:21;2.17;;;0.40;;
11893;SDS011;6006;49.696;8.662;2024-03-02T13:45:48;0.70;;;0.60;;
11893;SDS011;6006;49.696;8.662;2024-03-02T13:48:17;0.57;;;0.57;;
11893;SDS011;6006;49.696;8.662;2024-03-02T13:50:44;0.35;;;0.35;;
11893;SDS011;6006;49.696;8.662;2024-03-02T13:53:11;0.40;;;0.40;;
11893;SDS011;6006;49.696;8.662;2024-03-02T13:55:38;0.38;;;0.30;;
11893;SDS011;6006;49.696;8.662;2024-03-02T13:58:08;1.27;;;0.50;;
11893;SDS011;6006;49.696;8.662;2024-03-02T14:00:36;0.30;;;0.30;;
11893;SDS011;6006;49.696;8.662;2024-03-02T14:03:04;0.55;;;0.28;;
11893;SDS011;6006;49.696;8.662;2024-03-02T14:05:32;0.20;;;0.20;;
11893;SDS011;6006;49.696;8.662;2024-03-02T14:07:59;0.30;;;0.30;;
11893;SDS011;6006;49.696;8.662;2024-03-02T14:10:26;0.40;;;0.40;;
11893;SDS011;6006;49.696;8.662;2024-03-02T14:12:54;0.95;;;0.30;;
11893;SDS011;6006;49.696;8.662;2024-03-02T14:15:22;0.20;;;0.20;;
11893;SDS011;6006;49.696;8.662;2024-03-02T14:17:50;0.20;;;0.20;;
11893;SDS011;6006;49.696;8.662;2024-03-02T14:20:16;0.20;;;0.20;;
11893;SDS011;6006;49.696;8.662;2024-03-02T14:22:47;0.35;;;0.35;;
11893;SDS011;6006;49.696;8.662;2024-03-02T14:25:14;0.30;;;0.30;;
11893;SDS011;6006;49.696;8.662;2024-03-02T14:27:41;0.63;;;0.20;;
11893;SDS011;6006;49.696;8.662;2024-03-02T14:30:08;0.35;;;0.35;;
11893;SDS011;6006;49.696;8.662;2024-03-02T14:32:37;0.30;;;0.30;;
11893;SDS011;6006;49.696;8.662;2024-03-02T14:35:05;0.20;;;0.20;;
11893;SDS011;6006;49.696;8.662;2024-03-02T14:37:34;0.40;;;0.40;;
11893;SDS011;6006;49.696;8.662;2024-03-02T14:40:01;0.20;;;0.20;;
11893;SDS011;6006;49.696;8.662;2024-03-02T14:42:31;0.22;;;0.22;;
11893;SDS011;6006;49.696;8.662;2024-03-02T14:44:58;0.22;;;0.22;;
11893;SDS011;6006;49.696;8.662;2024-03-02T14:47:27;0.35;;;0.30;;
11893;SDS011;6006;49.696;8.662;2024-03-02T14:49:56;0.28;;;0.28;;
11893;SDS011;6006;49.696;8.662;2024-03-02T14:52:23;0.30;;;0.30;;
11893;SDS011;6006;49.696;8.662;2024-03-02T14:54:50;0.40;;;0.40;;
11893;SDS011;6006;49.696;8.662;2024-03-02T14:57:17;0.85;;;0.30;;
11893;SDS011;6006;49.696;8.662;2024-03-02T14:59:43;0.30;;;0.30;;
11893;SDS011;6006;49.696;8.662;2024-03-02T15:02:10;0.50;;;0.47;;
11893;SDS011;6006;49.696;8.662;2024-03-02T15:04:38;0.30;;;0.30;;
11893;SDS011;6006;49.696;8.662;2024-03-02T15:07:06;0.30;;;0.30;;
11893;SDS011;6006;49.696;8.662;2024-03-02T15:09:33;0.70;;;0.32;;
11893;SDS011;6006;49.696;8.662;2024-03-02T15:12:01;0.57;;;0.40;;
11893;SDS011;6006;49.696;8.662;2024-03-02T15:14:28;0.70;;;0.30;;